createdAt,value
2022-10-07T00:00:30.464Z,91.90
2022-10-07T00:01:33.815Z,92.10
2022-10-07T00:02:38.533Z,92.10
2022-10-07T00:03:45.068Z,92.10
2022-10-07T00:04:47.720Z,92.30
2022-10-07T00:06:02.728Z,92.20
2022-10-07T00:07:05.185Z,92.20
2022-10-07T00:08:08.748Z,92.30
2022-10-07T00:09:11.072Z,92.30
2022-10-07T00:10:14.646Z,92.30
2022-10-07T00:11:19.317Z,92.40
2022-10-07T00:12:22.592Z,92.50
2022-10-07T00:13:26.282Z,92.40
2022-10-07T00:14:29.548Z,92.50
2022-10-07T00:15:31.874Z,92.70
2022-10-07T00:16:39.015Z,92.60
2022-10-07T00:17:41.544Z,92.60
2022-10-07T00:18:48.229Z,92.60
2022-10-07T00:19:50.509Z,92.70
2022-10-07T00:20:53.774Z,92.70
2022-10-07T00:21:56.084Z,93.00
2022-10-07T00:22:59.448Z,92.90
2022-10-07T00:24:02.247Z,93.00
2022-10-07T00:25:06.498Z,93.00
2022-10-07T00:26:12.206Z,93.10
2022-10-07T00:27:15.432Z,93.20
2022-10-07T00:28:17.784Z,93.10
2022-10-07T00:29:22.754Z,93.10
2022-10-07T00:30:26.943Z,93.10
2022-10-07T00:31:34.350Z,93.20
2022-10-07T00:32:37.215Z,93.30
2022-10-07T00:33:41.716Z,93.30
2022-10-07T00:34:44.068Z,93.40
2022-10-07T00:35:50.432Z,93.40
2022-10-07T00:36:53.796Z,93.40
2022-10-07T00:37:56.156Z,93.40
2022-10-07T00:39:02.312Z,93.50
2022-10-07T00:40:05.771Z,93.50
2022-10-07T00:41:21.557Z,93.50
2022-10-07T00:42:24.073Z,93.50
2022-10-07T00:43:31.249Z,93.50
2022-10-07T00:44:41.553Z,93.60
2022-10-07T00:45:45.009Z,93.60
2022-10-07T00:46:48.070Z,93.60
2022-10-07T00:47:52.471Z,93.60
2022-10-07T00:48:55.873Z,93.70
2022-10-07T00:50:05.701Z,93.80
2022-10-07T00:51:10.382Z,93.80
2022-10-07T00:52:14.680Z,93.80
2022-10-07T00:53:18.611Z,93.80
2022-10-07T00:54:21.518Z,93.80
2022-10-07T00:55:28.946Z,93.90
2022-10-07T00:56:33.664Z,93.90
2022-10-07T00:57:39.812Z,93.90
2022-10-07T00:58:47.561Z,93.90
2022-10-07T00:59:52.268Z,94.00
2022-10-07T01:00:55.670Z,94.10
2022-10-07T01:01:58.149Z,94.10
2022-10-07T01:03:03.469Z,94.10
2022-10-07T01:04:09.475Z,94.10
2022-10-07T01:05:14.376Z,94.20
2022-10-07T01:06:18.372Z,94.30
2022-10-07T01:07:22.712Z,94.40
2022-10-07T01:08:25.713Z,94.40
2022-10-07T01:09:29.807Z,94.40
2022-10-07T01:10:41.609Z,94.40
2022-10-07T01:11:56.845Z,94.60
2022-10-07T01:13:09.151Z,94.50
2022-10-07T01:14:25.236Z,94.60
2022-10-07T01:15:37.766Z,94.60
2022-10-07T01:16:49.613Z,94.60
2022-10-07T01:18:05.259Z,94.70
2022-10-07T01:19:27.518Z,94.80
2022-10-07T01:20:35.844Z,94.70
2022-10-07T01:21:51.014Z,94.80
2022-10-07T01:23:10.071Z,94.80
2022-10-07T01:24:25.862Z,94.90
2022-10-07T01:25:44.891Z,94.90
2022-10-07T01:27:01.214Z,94.90
2022-10-07T01:28:10.033Z,95.00
2022-10-07T01:29:18.740Z,95.00
2022-10-07T01:30:23.180Z,95.00
2022-10-07T01:31:34.426Z,95.00
2022-10-07T01:32:41.834Z,95.20
2022-10-07T01:33:49.283Z,95.20
2022-10-07T01:34:54.711Z,95.30
2022-10-07T01:36:04.891Z,95.30
2022-10-07T01:37:13.383Z,95.30
2022-10-07T01:38:21.103Z,95.40
2022-10-07T01:39:29.512Z,95.40
2022-10-07T01:40:41.509Z,95.40
2022-10-07T01:41:44.627Z,95.40
2022-10-07T01:42:52.314Z,95.40
2022-10-07T01:43:56.606Z,95.50
2022-10-07T01:45:00.814Z,95.40
2022-10-07T01:46:07.581Z,95.50
2022-10-07T01:47:12.039Z,95.50
2022-10-07T01:48:16.185Z,95.50
2022-10-07T01:49:19.523Z,95.50
2022-10-07T01:50:27.704Z,95.50
2022-10-07T01:51:36.113Z,95.50
2022-10-07T01:52:58.022Z,95.50
2022-10-07T01:54:10.044Z,95.50
2022-10-07T01:55:48.090Z,95.60
2022-10-07T01:57:09.353Z,95.60
2022-10-07T01:58:33.117Z,95.60
2022-10-07T02:00:10.065Z,95.60
2022-10-07T02:01:27.421Z,95.60
2022-10-07T02:03:02.507Z,95.70
2022-10-07T02:04:24.000Z,95.70
2022-10-07T02:05:40.123Z,95.80
2022-10-07T02:06:55.383Z,95.80
2022-10-07T02:08:17.446Z,95.80
2022-10-07T02:09:32.705Z,95.90
2022-10-07T02:10:43.467Z,95.90
2022-10-07T02:11:59.513Z,95.90
2022-10-07T02:13:12.918Z,95.90
2022-10-07T02:14:25.283Z,96.00
2022-10-07T02:15:37.580Z,96.00
2022-10-07T02:16:44.085Z,96.00
2022-10-07T02:17:54.124Z,96.10
2022-10-07T02:18:58.969Z,96.10
2022-10-07T02:20:04.399Z,96.10
2022-10-07T02:21:08.992Z,96.10
2022-10-07T02:22:14.417Z,96.10
2022-10-07T02:23:20.619Z,96.20
2022-10-07T02:24:29.005Z,96.30
2022-10-07T02:25:37.759Z,96.30
2022-10-07T02:26:44.392Z,96.30
2022-10-07T02:27:52.016Z,96.30
2022-10-07T02:28:59.011Z,96.30
2022-10-07T02:30:10.772Z,96.30
2022-10-07T02:31:17.781Z,96.30
2022-10-07T02:32:27.113Z,96.30
2022-10-07T02:33:35.229Z,96.30
2022-10-07T02:34:41.268Z,96.30
2022-10-07T02:35:50.893Z,96.30
2022-10-07T02:36:58.680Z,96.30
2022-10-07T02:38:11.290Z,96.30
2022-10-07T02:39:13.886Z,96.30
2022-10-07T02:40:18.124Z,96.30
2022-10-07T02:41:33.501Z,96.30
2022-10-07T02:42:52.402Z,96.30
2022-10-07T02:44:00.866Z,96.30
2022-10-07T02:45:16.664Z,96.30
2022-10-07T02:46:26.506Z,96.30
2022-10-07T02:47:36.805Z,96.30
2022-10-07T02:48:44.538Z,96.30
2022-10-07T02:49:53.924Z,96.30
2022-10-07T02:51:03.919Z,96.30
2022-10-07T02:52:12.380Z,96.30
2022-10-07T02:53:16.612Z,96.30
2022-10-07T02:54:25.659Z,96.30
2022-10-07T02:55:29.759Z,96.30
2022-10-07T02:56:39.012Z,96.30
2022-10-07T02:57:46.741Z,96.30
2022-10-07T02:58:52.128Z,96.30
2022-10-07T02:59:57.851Z,96.30
2022-10-07T03:01:04.032Z,96.30
2022-10-07T03:02:14.170Z,96.30
2022-10-07T03:03:17.717Z,96.30
2022-10-07T03:04:46.697Z,96.30
2022-10-07T03:05:50.387Z,96.30
2022-10-07T03:06:55.747Z,96.30
2022-10-07T03:08:05.123Z,96.30
2022-10-07T03:09:09.220Z,96.30
2022-10-07T03:10:12.767Z,96.30
2022-10-07T03:11:17.577Z,96.30
2022-10-07T03:12:21.227Z,96.30
2022-10-07T03:13:24.852Z,96.30
2022-10-07T03:14:34.733Z,96.30
2022-10-07T03:15:42.070Z,96.30
2022-10-07T03:16:49.496Z,96.30
2022-10-07T03:17:55.257Z,96.30
2022-10-07T03:18:58.926Z,96.30
2022-10-07T03:20:09.579Z,96.30
2022-10-07T03:21:11.980Z,96.30
2022-10-07T03:22:15.781Z,96.30
2022-10-07T03:23:19.271Z,96.30
2022-10-07T03:24:23.011Z,96.30
2022-10-07T03:25:27.359Z,96.30
2022-10-07T03:26:33.608Z,96.30
2022-10-07T03:27:37.410Z,96.30
2022-10-07T03:28:41.041Z,96.30
2022-10-07T03:29:43.397Z,96.30
2022-10-07T03:30:47.676Z,96.30
2022-10-07T03:31:55.337Z,96.30
2022-10-07T03:32:59.244Z,96.30
2022-10-07T03:34:01.639Z,96.30
2022-10-07T03:35:05.257Z,96.30
2022-10-07T03:36:09.178Z,96.30
2022-10-07T03:37:14.058Z,96.30
2022-10-07T03:38:16.711Z,96.30
2022-10-07T03:39:22.578Z,96.30
2022-10-07T03:40:25.011Z,96.30
2022-10-07T03:41:28.389Z,96.30
2022-10-07T03:42:34.936Z,96.30
2022-10-07T03:43:41.148Z,96.30
2022-10-07T03:44:45.674Z,96.30
2022-10-07T03:45:51.992Z,96.30
2022-10-07T03:46:55.836Z,96.30
2022-10-07T03:48:01.653Z,96.30
2022-10-07T03:49:04.275Z,96.30
2022-10-07T03:50:09.276Z,96.30
2022-10-07T03:51:11.654Z,96.30
2022-10-07T03:52:16.642Z,96.30
2022-10-07T03:53:21.871Z,96.30
2022-10-07T03:54:28.419Z,96.30
2022-10-07T03:55:30.983Z,96.30
2022-10-07T03:56:37.065Z,96.30
2022-10-07T03:57:56.891Z,96.30
2022-10-07T03:59:03.344Z,96.30
2022-10-07T04:00:08.431Z,96.30
2022-10-07T04:01:18.257Z,96.30
2022-10-07T04:02:28.583Z,96.30
2022-10-07T04:03:32.592Z,96.30
2022-10-07T04:04:34.914Z,96.30
2022-10-07T04:05:38.785Z,96.30
2022-10-07T04:06:43.910Z,96.30
2022-10-07T04:07:52.110Z,96.30
2022-10-07T04:08:55.792Z,96.30
2022-10-07T04:09:59.246Z,96.30
2022-10-07T04:11:06.038Z,96.30
2022-10-07T04:12:09.360Z,96.30
2022-10-07T04:13:12.648Z,96.30
2022-10-07T04:14:16.495Z,96.30
2022-10-07T04:15:20.406Z,96.30
2022-10-07T04:16:23.125Z,96.30
2022-10-07T04:17:28.290Z,96.30
2022-10-07T04:18:30.658Z,96.30
2022-10-07T04:19:36.711Z,96.30
2022-10-07T04:20:39.281Z,96.30
2022-10-07T04:21:43.136Z,96.30
2022-10-07T04:22:45.428Z,96.30
2022-10-07T04:23:48.721Z,96.30
2022-10-07T04:25:08.060Z,96.30
2022-10-07T04:26:13.410Z,96.30
2022-10-07T04:27:47.024Z,96.30
2022-10-07T04:28:49.225Z,96.30
2022-10-07T04:29:54.961Z,96.30
2022-10-07T04:30:58.293Z,96.30
2022-10-07T04:32:09.429Z,96.30
2022-10-07T04:33:13.485Z,96.30
2022-10-07T04:34:17.044Z,96.30
2022-10-07T04:35:20.987Z,96.30
2022-10-07T04:36:29.469Z,96.30
2022-10-07T04:37:39.316Z,96.30
2022-10-07T04:38:46.670Z,96.30
2022-10-07T04:40:00.525Z,96.30
2022-10-07T04:41:09.338Z,96.30
2022-10-07T04:42:29.137Z,96.30
2022-10-07T04:43:35.981Z,96.30
2022-10-07T04:44:42.235Z,96.30
2022-10-07T04:45:46.293Z,96.30
2022-10-07T04:46:52.108Z,96.30
2022-10-07T04:47:55.538Z,96.30
2022-10-07T04:49:02.631Z,96.30
2022-10-07T04:50:07.755Z,96.30
2022-10-07T04:51:11.733Z,96.30
2022-10-07T04:52:16.353Z,96.30
2022-10-07T04:53:22.585Z,96.30
2022-10-07T04:54:26.098Z,96.30
2022-10-07T04:55:38.220Z,96.30
2022-10-07T04:56:40.683Z,96.30
2022-10-07T04:57:47.337Z,96.30
2022-10-07T04:58:53.236Z,96.30
2022-10-07T04:59:56.401Z,96.30
2022-10-07T05:01:02.021Z,96.30
2022-10-07T05:02:04.708Z,96.30
2022-10-07T05:03:11.388Z,96.30
2022-10-07T05:04:18.833Z,96.30
2022-10-07T05:05:22.021Z,96.30
2022-10-07T05:06:25.331Z,96.30
2022-10-07T05:07:27.783Z,96.30
2022-10-07T05:08:31.718Z,96.30
2022-10-07T05:09:35.067Z,96.30
2022-10-07T05:10:39.743Z,96.30
2022-10-07T05:11:42.279Z,96.30
2022-10-07T05:12:55.850Z,96.30
2022-10-07T05:13:59.416Z,96.30
2022-10-07T05:15:07.843Z,96.30
2022-10-07T05:16:12.218Z,96.30
2022-10-07T05:17:16.778Z,96.30
2022-10-07T05:18:20.905Z,96.30
2022-10-07T05:19:25.900Z,96.30
2022-10-07T05:20:30.473Z,96.30
2022-10-07T05:21:33.842Z,96.30
2022-10-07T05:22:38.040Z,96.30
2022-10-07T05:23:42.588Z,96.30
2022-10-07T05:24:49.146Z,96.30
2022-10-07T05:26:04.543Z,96.30
2022-10-07T05:27:09.282Z,96.30
2022-10-07T05:28:14.587Z,96.30
2022-10-07T05:29:17.236Z,96.30
2022-10-07T05:30:24.366Z,96.30
2022-10-07T05:31:27.890Z,96.30
2022-10-07T05:32:34.655Z,96.30
2022-10-07T05:33:40.422Z,96.30
2022-10-07T05:34:45.911Z,96.30
2022-10-07T05:35:48.369Z,96.30
2022-10-07T05:36:51.770Z,96.30
2022-10-07T05:37:57.724Z,96.30
2022-10-07T05:39:01.309Z,96.30
2022-10-07T05:40:13.814Z,96.30
2022-10-07T05:41:19.699Z,96.30
2022-10-07T05:42:23.134Z,96.30
2022-10-07T05:43:33.243Z,96.30
2022-10-07T05:44:39.792Z,96.30
2022-10-07T05:45:42.448Z,96.30
2022-10-07T05:46:45.918Z,96.30
2022-10-07T05:47:49.308Z,96.30
2022-10-07T05:48:54.969Z,96.30
2022-10-07T05:50:04.710Z,96.30
2022-10-07T05:51:08.840Z,96.30
2022-10-07T05:52:12.256Z,96.30
2022-10-07T05:53:15.798Z,96.30
2022-10-07T05:54:20.344Z,96.30
2022-10-07T05:55:25.240Z,96.30
2022-10-07T05:56:28.796Z,96.30
2022-10-07T05:57:32.147Z,96.30
2022-10-07T05:58:39.044Z,96.30
2022-10-07T05:59:44.308Z,96.30
2022-10-07T06:00:55.450Z,96.30
2022-10-07T06:02:00.391Z,96.30
2022-10-07T06:03:04.895Z,96.30
2022-10-07T06:04:08.194Z,96.30
2022-10-07T06:05:16.083Z,96.30
2022-10-07T06:06:19.044Z,96.30
2022-10-07T06:07:29.279Z,96.30
2022-10-07T06:08:33.348Z,96.30
2022-10-07T06:09:55.256Z,96.30
2022-10-07T06:11:20.587Z,96.30
2022-10-07T06:12:42.647Z,96.30
2022-10-07T06:13:50.085Z,96.30
2022-10-07T06:14:52.626Z,96.30
2022-10-07T06:15:56.019Z,96.30
2022-10-07T06:16:58.644Z,96.30
2022-10-07T06:18:02.086Z,96.30
2022-10-07T06:19:04.467Z,96.30
2022-10-07T06:20:09.530Z,96.30
2022-10-07T06:21:13.488Z,96.30
2022-10-07T06:22:16.964Z,96.30
2022-10-07T06:23:19.342Z,96.30
2022-10-07T06:24:22.923Z,96.30
2022-10-07T06:25:26.139Z,96.30
2022-10-07T06:26:29.676Z,96.30
2022-10-07T06:27:32.013Z,96.30
2022-10-07T06:28:37.972Z,96.30
2022-10-07T06:29:40.921Z,96.30
2022-10-07T06:30:44.886Z,96.30
2022-10-07T06:31:47.421Z,96.30
2022-10-07T06:32:50.810Z,96.30
2022-10-07T06:33:54.132Z,96.30
2022-10-07T06:35:00.285Z,96.30
2022-10-07T06:36:04.671Z,96.30
2022-10-07T06:37:09.620Z,96.30
2022-10-07T06:38:12.674Z,96.30
2022-10-07T06:39:18.188Z,96.30
2022-10-07T06:40:22.480Z,96.30
2022-10-07T06:41:25.955Z,96.30
2022-10-07T06:42:41.298Z,96.30
2022-10-07T06:44:02.239Z,96.30
2022-10-07T06:45:05.671Z,96.30
2022-10-07T06:46:17.998Z,96.30
2022-10-07T06:47:23.028Z,96.30
2022-10-07T06:48:27.319Z,96.30
2022-10-07T06:49:31.271Z,96.30
2022-10-07T06:50:35.228Z,96.30
2022-10-07T06:51:37.769Z,96.30
2022-10-07T06:52:43.843Z,96.30
2022-10-07T06:53:50.845Z,96.30
2022-10-07T06:54:59.048Z,96.30
2022-10-07T06:56:02.845Z,96.30
2022-10-07T06:57:33.064Z,96.00
2022-10-07T06:58:35.727Z,95.40
2022-10-07T06:59:40.195Z,95.00
2022-10-07T07:00:50.470Z,94.30
2022-10-07T07:01:53.102Z,93.70
2022-10-07T07:02:56.810Z,93.10
2022-10-07T07:03:59.422Z,92.70
2022-10-07T07:05:04.868Z,92.10
2022-10-07T07:06:09.379Z,91.70
2022-10-07T07:07:13.419Z,90.70
2022-10-07T07:08:17.681Z,91.10
2022-10-07T07:09:22.812Z,90.60
2022-10-07T07:10:27.139Z,89.90
2022-10-07T07:11:41.765Z,89.50
2022-10-07T07:12:53.730Z,88.70
2022-10-07T07:13:57.950Z,88.00
2022-10-07T07:15:02.397Z,87.60
2022-10-07T07:16:05.107Z,87.40
2022-10-07T07:17:10.582Z,86.80
2022-10-07T07:18:13.026Z,86.40
2022-10-07T07:19:16.884Z,86.20
2022-10-07T07:20:19.393Z,86.20
2022-10-07T07:21:28.810Z,85.00
2022-10-07T07:22:32.335Z,85.10
2022-10-07T07:23:36.252Z,84.30
2022-10-07T07:24:44.675Z,84.10
2022-10-07T07:25:47.214Z,83.40
2022-10-07T07:26:50.880Z,83.50
2022-10-07T07:27:57.924Z,82.80
2022-10-07T07:29:05.480Z,83.20
2022-10-07T07:30:15.358Z,82.70
2022-10-07T07:31:20.634Z,81.10
2022-10-07T07:32:24.244Z,80.70
2022-10-07T07:33:28.732Z,81.10
2022-10-07T07:34:34.062Z,80.50
2022-10-07T07:35:41.488Z,79.80
2022-10-07T07:36:48.628Z,79.50
2022-10-07T07:37:54.473Z,79.40
2022-10-07T07:39:02.364Z,78.90
2022-10-07T07:40:06.696Z,79.00
2022-10-07T07:41:10.108Z,78.40
2022-10-07T07:42:15.769Z,77.80
2022-10-07T07:43:20.467Z,77.00
2022-10-07T07:44:23.892Z,76.60
2022-10-07T07:45:37.489Z,76.00
2022-10-07T07:46:43.264Z,76.30
2022-10-07T07:47:49.536Z,75.30
2022-10-07T07:48:53.555Z,76.20
2022-10-07T07:49:57.175Z,75.00
2022-10-07T07:51:06.775Z,74.70
2022-10-07T07:52:11.102Z,76.00
2022-10-07T07:53:18.322Z,75.10
2022-10-07T07:54:24.933Z,75.20
2022-10-07T07:55:28.366Z,74.20
2022-10-07T07:56:32.092Z,74.00
2022-10-07T07:57:36.590Z,73.60
2022-10-07T07:58:42.610Z,74.60
2022-10-07T07:59:46.613Z,74.40
2022-10-07T08:01:02.491Z,75.00
2022-10-07T08:02:07.328Z,74.20
2022-10-07T08:03:13.359Z,74.20
2022-10-07T08:04:17.053Z,73.90
2022-10-07T08:05:23.899Z,73.20
2022-10-07T08:06:31.499Z,73.70
2022-10-07T08:07:37.799Z,73.20
2022-10-07T08:08:43.196Z,72.60
2022-10-07T08:09:49.623Z,72.90
2022-10-07T08:10:52.176Z,73.60
2022-10-07T08:11:57.356Z,71.90
2022-10-07T08:13:00.007Z,72.50
2022-10-07T08:14:07.966Z,71.90
2022-10-07T08:15:11.386Z,72.00
2022-10-07T08:16:17.658Z,70.50
2022-10-07T08:17:22.197Z,70.00
2022-10-07T08:18:27.044Z,69.50
2022-10-07T08:19:32.760Z,69.70
2022-10-07T08:20:39.207Z,69.50
2022-10-07T08:21:43.869Z,69.70
2022-10-07T08:22:54.497Z,70.30
2022-10-07T08:24:02.868Z,70.40
2022-10-07T08:25:11.439Z,70.80
2022-10-07T08:26:15.067Z,69.20
2022-10-07T08:27:19.144Z,68.80
2022-10-07T08:28:24.685Z,68.10
2022-10-07T08:29:31.816Z,67.10
2022-10-07T08:30:34.468Z,68.10
2022-10-07T08:31:38.145Z,68.20
2022-10-07T08:32:43.897Z,67.10
2022-10-07T08:33:49.306Z,67.40
2022-10-07T08:34:51.669Z,68.40
2022-10-07T08:36:01.422Z,67.60
2022-10-07T08:37:05.341Z,68.20
2022-10-07T08:38:09.631Z,66.20
2022-10-07T08:39:16.661Z,65.00
2022-10-07T08:40:20.605Z,64.60
2022-10-07T08:41:59.841Z,66.10
2022-10-07T08:43:03.331Z,64.70
2022-10-07T08:44:21.291Z,64.80
2022-10-07T08:45:32.896Z,63.20
2022-10-07T08:46:44.240Z,62.70
2022-10-07T08:47:52.404Z,64.80
2022-10-07T08:49:00.157Z,65.00
2022-10-07T08:50:09.827Z,67.40
2022-10-07T08:51:19.947Z,66.50
2022-10-07T08:52:34.966Z,66.80
2022-10-07T08:53:38.313Z,66.50
2022-10-07T08:54:41.849Z,66.90
2022-10-07T08:55:50.968Z,66.20
2022-10-07T08:56:56.602Z,65.10
2022-10-07T08:58:33.883Z,66.10
2022-10-07T08:59:45.770Z,66.90
2022-10-07T09:00:58.618Z,64.90
2022-10-07T09:02:24.622Z,65.80
2022-10-07T09:03:43.755Z,65.20
2022-10-07T09:04:58.283Z,65.80
2022-10-07T09:06:10.942Z,64.80
2022-10-07T09:07:20.321Z,66.10
2022-10-07T09:08:32.565Z,65.30
2022-10-07T09:09:44.552Z,66.50
2022-10-07T09:10:53.425Z,65.20
2022-10-07T09:11:58.908Z,65.80
2022-10-07T09:13:10.386Z,67.20
2022-10-07T09:14:32.479Z,70.00
2022-10-07T09:15:42.291Z,67.90
2022-10-07T09:16:47.804Z,67.90
2022-10-07T09:17:59.825Z,67.80
2022-10-07T09:19:05.497Z,67.30
2022-10-07T09:20:16.702Z,68.30
2022-10-07T09:21:25.668Z,68.50
2022-10-07T09:22:31.435Z,70.50
2022-10-07T09:23:37.050Z,70.00
2022-10-07T09:24:39.775Z,70.80
2022-10-07T09:25:46.095Z,70.50
2022-10-07T09:26:54.263Z,71.30
2022-10-07T09:27:58.407Z,71.70
2022-10-07T09:29:01.301Z,72.20
2022-10-07T09:30:06.267Z,72.50
2022-10-07T09:31:13.720Z,73.00
2022-10-07T09:32:19.994Z,74.50
2022-10-07T09:33:24.974Z,74.40
2022-10-07T09:34:32.788Z,74.30
2022-10-07T09:35:38.203Z,74.50
2022-10-07T09:37:20.664Z,75.00
2022-10-07T09:38:35.994Z,75.70
2022-10-07T09:39:39.213Z,77.70
2022-10-07T09:41:01.059Z,77.40
2022-10-07T09:42:09.396Z,77.80
2022-10-07T09:43:14.295Z,78.90
2022-10-07T09:44:27.385Z,78.70
2022-10-07T09:45:32.432Z,79.40
2022-10-07T09:46:49.059Z,79.30
2022-10-07T09:47:53.357Z,79.70
2022-10-07T09:49:04.461Z,79.90
2022-10-07T09:50:34.294Z,80.20
2022-10-07T09:51:39.619Z,80.60
2022-10-07T09:52:57.197Z,81.90
2022-10-07T09:54:02.789Z,81.50
2022-10-07T09:55:38.088Z,81.50
2022-10-07T09:56:43.471Z,82.00
2022-10-07T09:58:01.422Z,82.20
2022-10-07T09:59:23.437Z,82.00
2022-10-07T10:00:27.406Z,82.50
2022-10-07T10:01:31.102Z,81.70
2022-10-07T10:02:33.617Z,81.20
2022-10-07T10:03:38.854Z,81.50
2022-10-07T10:04:49.274Z,82.30
2022-10-07T10:05:57.547Z,82.40
2022-10-07T10:07:05.914Z,81.00
2022-10-07T10:08:24.943Z,81.70
2022-10-07T10:09:27.447Z,81.20
2022-10-07T10:10:33.791Z,80.00
2022-10-07T10:11:36.172Z,79.60
2022-10-07T10:12:51.017Z,78.80
2022-10-07T10:13:58.045Z,78.40
2022-10-07T10:15:02.627Z,75.20
2022-10-07T10:16:28.755Z,78.00
2022-10-07T10:17:40.410Z,73.70
2022-10-07T10:18:54.261Z,72.50
2022-10-07T10:20:30.051Z,72.30
2022-10-07T10:21:36.947Z,73.40
2022-10-07T10:22:39.668Z,71.50
2022-10-07T10:23:47.544Z,70.80
2022-10-07T10:25:08.502Z,70.50
2022-10-07T10:26:33.885Z,70.40
2022-10-07T10:27:48.794Z,71.30
2022-10-07T10:29:07.984Z,71.50
2022-10-07T10:30:20.906Z,71.20
2022-10-07T10:31:34.219Z,71.50
2022-10-07T10:33:16.892Z,72.10
2022-10-07T10:34:36.051Z,71.40
2022-10-07T10:35:47.809Z,72.10
2022-10-07T10:37:01.461Z,71.20
2022-10-07T10:38:23.425Z,74.30
2022-10-07T10:39:47.530Z,71.90
2022-10-07T10:41:02.502Z,73.10
2022-10-07T10:42:11.994Z,73.60
2022-10-07T10:43:26.092Z,72.90
2022-10-07T10:44:57.169Z,73.40
2022-10-07T10:46:19.750Z,72.80
2022-10-07T10:47:37.055Z,73.70
2022-10-07T10:48:47.266Z,73.60
2022-10-07T10:50:04.842Z,74.10
2022-10-07T10:51:31.963Z,75.50
2022-10-07T10:52:51.553Z,75.00
2022-10-07T10:54:12.589Z,75.00
2022-10-07T10:55:46.876Z,75.40
2022-10-07T10:56:58.262Z,75.80
2022-10-07T10:58:18.174Z,75.80
2022-10-07T10:59:44.169Z,75.40
2022-10-07T11:01:03.131Z,77.10
2022-10-07T11:02:34.564Z,77.40
2022-10-07T11:04:05.030Z,78.60
2022-10-07T11:05:16.549Z,77.90
2022-10-07T11:06:21.272Z,78.30
2022-10-07T11:07:29.680Z,77.30
2022-10-07T11:08:38.629Z,77.80
2022-10-07T11:09:49.494Z,77.90
2022-10-07T11:10:58.753Z,78.30
2022-10-07T11:12:05.509Z,78.80
2022-10-07T11:13:29.812Z,78.50
2022-10-07T11:14:46.079Z,77.60
2022-10-07T11:15:57.033Z,77.90
2022-10-07T11:17:04.718Z,77.10
2022-10-07T11:18:20.343Z,77.80
2022-10-07T11:19:30.028Z,77.70
2022-10-07T11:20:43.733Z,77.90
2022-10-07T11:21:51.119Z,77.60
2022-10-07T11:23:01.475Z,77.70
2022-10-07T11:24:11.460Z,77.20
2022-10-07T11:25:26.628Z,77.40
2022-10-07T11:26:37.628Z,76.80
2022-10-07T11:27:43.465Z,76.80
2022-10-07T11:28:47.668Z,76.30
2022-10-07T11:29:58.995Z,76.00
2022-10-07T11:31:14.293Z,78.80
2022-10-07T11:32:25.886Z,78.60
2022-10-07T11:33:38.466Z,78.50
2022-10-07T11:34:54.344Z,77.40
2022-10-07T11:36:10.075Z,77.30
2022-10-07T11:37:22.893Z,77.80
2022-10-07T11:38:33.388Z,78.70
2022-10-07T11:39:39.404Z,77.80
2022-10-07T11:40:46.320Z,77.80
2022-10-07T11:42:00.815Z,77.30
2022-10-07T11:43:09.318Z,77.00
2022-10-07T11:44:22.595Z,76.90
2022-10-07T11:45:33.586Z,77.90
2022-10-07T11:46:45.594Z,77.50
2022-10-07T11:47:56.345Z,78.80
2022-10-07T11:49:04.638Z,79.40
2022-10-07T11:50:14.150Z,78.50
2022-10-07T11:51:26.572Z,81.30
2022-10-07T11:52:38.012Z,79.50
2022-10-07T11:53:41.930Z,80.10
2022-10-07T11:54:59.052Z,79.40
2022-10-07T11:56:04.741Z,79.30
2022-10-07T11:57:22.931Z,79.50
2022-10-07T11:58:29.510Z,79.50
2022-10-07T11:59:43.934Z,80.20
2022-10-07T12:00:47.864Z,81.70
2022-10-07T12:01:55.180Z,79.00
2022-10-07T12:03:12.208Z,78.20
2022-10-07T12:04:44.624Z,78.30
2022-10-07T12:06:07.623Z,78.90
2022-10-07T12:07:40.415Z,81.40
2022-10-07T12:08:44.864Z,78.80
2022-10-07T12:09:55.521Z,77.80
2022-10-07T12:11:47.415Z,79.10
2022-10-07T12:12:53.205Z,77.80
2022-10-07T12:14:01.092Z,76.70
2022-10-07T12:15:05.042Z,77.00
2022-10-07T12:16:56.218Z,77.20
2022-10-07T12:18:30.649Z,77.10
2022-10-07T12:19:39.197Z,77.10
2022-10-07T12:20:47.686Z,77.50
2022-10-07T12:22:19.858Z,77.90
2022-10-07T12:23:46.361Z,76.80
2022-10-07T12:25:32.210Z,77.00
2022-10-07T12:26:48.519Z,77.90
2022-10-07T12:27:52.513Z,77.40
2022-10-07T12:28:56.557Z,76.80
2022-10-07T12:30:03.212Z,76.80
2022-10-07T12:31:46.435Z,76.70
2022-10-07T12:33:01.881Z,77.50
2022-10-07T12:34:11.348Z,77.80
2022-10-07T12:35:54.244Z,77.70
2022-10-07T12:37:46.451Z,77.80
2022-10-07T12:39:36.750Z,79.80
2022-10-07T12:40:40.914Z,79.70
2022-10-07T12:41:46.444Z,80.00
2022-10-07T12:43:03.960Z,79.70
2022-10-07T12:44:18.019Z,79.10
2022-10-07T12:45:22.765Z,78.90
2022-10-07T12:46:35.532Z,79.60
2022-10-07T12:47:40.175Z,79.60
2022-10-07T12:48:53.082Z,79.60
2022-10-07T12:50:00.365Z,78.80
2022-10-07T12:51:08.244Z,79.50
2022-10-07T12:52:19.963Z,79.40
2022-10-07T12:53:28.089Z,79.00
2022-10-07T12:54:37.791Z,78.10
2022-10-07T12:55:48.270Z,78.40
2022-10-07T12:56:50.998Z,79.20
2022-10-07T12:58:17.476Z,78.70
2022-10-07T12:59:51.890Z,80.70
2022-10-07T13:01:15.691Z,79.50
2022-10-07T13:03:24.488Z,78.40
2022-10-07T13:04:51.252Z,77.50
2022-10-07T13:06:55.349Z,78.80
2022-10-07T13:08:34.593Z,81.50
2022-10-07T13:10:11.422Z,79.00
2022-10-07T13:12:01.836Z,80.30
2022-10-07T13:13:08.629Z,80.80
2022-10-07T13:14:20.757Z,81.40
2022-10-07T13:15:41.699Z,82.20
2022-10-07T13:16:54.450Z,81.60
2022-10-07T13:18:09.881Z,79.70
2022-10-07T13:19:25.948Z,80.00
2022-10-07T13:20:43.906Z,80.10
2022-10-07T13:21:53.041Z,79.90
2022-10-07T13:22:57.116Z,80.50
2022-10-07T13:24:00.584Z,79.30
2022-10-07T13:25:07.660Z,80.90
2022-10-07T13:26:14.776Z,80.30
2022-10-07T13:27:21.108Z,80.10
2022-10-07T13:28:32.194Z,79.40
2022-10-07T13:29:39.926Z,79.70
2022-10-07T13:30:45.876Z,79.50
2022-10-07T13:32:05.964Z,79.80
2022-10-07T13:33:24.458Z,79.70
2022-10-07T13:34:29.493Z,79.80
2022-10-07T13:35:39.611Z,79.80
2022-10-07T13:36:44.409Z,80.30
2022-10-07T13:37:48.248Z,79.70
2022-10-07T13:39:12.104Z,80.00
2022-10-07T13:40:25.566Z,79.60
2022-10-07T13:41:31.379Z,80.10
2022-10-07T13:42:35.280Z,79.70
2022-10-07T13:43:39.137Z,80.10
2022-10-07T13:44:45.674Z,80.20
2022-10-07T13:45:48.163Z,80.40
2022-10-07T13:46:59.996Z,80.40
2022-10-07T13:48:02.818Z,80.60
2022-10-07T13:49:06.512Z,80.70
2022-10-07T13:50:16.579Z,80.80
2022-10-07T13:51:32.191Z,80.70
2022-10-07T13:52:39.294Z,81.00
2022-10-07T13:53:42.871Z,80.50
2022-10-07T13:54:52.601Z,80.60
2022-10-07T13:56:18.011Z,81.10
2022-10-07T13:57:22.819Z,81.30
2022-10-07T13:58:25.332Z,81.30
2022-10-07T13:59:29.865Z,80.70
2022-10-07T14:00:33.648Z,80.20
2022-10-07T14:01:40.776Z,80.10
2022-10-07T14:02:43.589Z,80.30
2022-10-07T14:04:18.964Z,81.10
2022-10-07T14:05:25.888Z,80.60
2022-10-07T14:06:46.400Z,79.50
2022-10-07T14:07:55.005Z,79.60
2022-10-07T14:09:01.214Z,79.30
2022-10-07T14:10:09.875Z,79.00
2022-10-07T14:11:21.325Z,79.80
2022-10-07T14:12:33.936Z,79.60
2022-10-07T14:13:37.896Z,79.90
2022-10-07T14:14:46.581Z,79.50
2022-10-07T14:15:55.226Z,80.40
2022-10-07T14:17:00.111Z,80.80
2022-10-07T14:18:13.302Z,78.80
2022-10-07T14:19:21.070Z,78.90
2022-10-07T14:20:29.604Z,78.50
2022-10-07T14:21:39.918Z,78.80
2022-10-07T14:22:50.011Z,82.30
2022-10-07T14:23:52.406Z,79.60
2022-10-07T14:24:59.656Z,81.00
2022-10-07T14:26:05.435Z,82.10
2022-10-07T14:27:53.853Z,80.40
2022-10-07T14:28:58.153Z,79.30
2022-10-07T14:30:01.473Z,78.80
2022-10-07T14:31:40.126Z,78.50
2022-10-07T14:33:01.116Z,78.80
2022-10-07T14:34:32.747Z,79.80
2022-10-07T14:35:39.514Z,79.00
2022-10-07T14:37:05.333Z,77.70
2022-10-07T14:38:28.518Z,77.50
2022-10-07T14:39:38.589Z,77.60
2022-10-07T14:40:40.934Z,77.70
2022-10-07T14:41:44.284Z,76.70
2022-10-07T14:42:48.403Z,76.00
2022-10-07T14:43:53.071Z,76.30
2022-10-07T14:44:57.565Z,75.20
2022-10-07T14:46:11.974Z,75.50
2022-10-07T14:47:21.065Z,75.40
2022-10-07T14:48:23.511Z,74.90
2022-10-07T14:49:28.472Z,74.70
2022-10-07T14:50:30.942Z,75.10
2022-10-07T14:51:34.417Z,75.30
2022-10-07T14:52:44.570Z,74.80
2022-10-07T14:53:54.503Z,75.10
2022-10-07T14:55:00.136Z,75.90